Terminal Aerodrome Forecast
Issued by NWS

Home | Current Version | Previous Version | Text Only | Print | Product List | Glossary On
Versions: 1 2 3 4 5 6 7 8 9 10 11 12 13 14 15
000
FTUS44 KLZK 281100
TAFLIT
TAF
KLIT 281140Z 2812/2912 16004KT P6SM SCT250
     FM281600 19008G15KT P6SM SCT250
     FM290000 17006KT P6SM SCT250 WS020/19035KT
     FM290900 18005KT P6SM BKN025 WS020/21040KT=

USA.gov is the U.S. government's official web portal to all federal, state and local government web resources and services.